createdAt,value
2023-10-26T00:01:26.696Z,98342.97
2023-10-26T00:03:54.928Z,98341.72
2023-10-26T00:06:23.165Z,98336.44
2023-10-26T00:08:51.628Z,98334.47
2023-10-26T00:11:19.848Z,98324.47
2023-10-26T00:13:48.230Z,98326.41
2023-10-26T00:16:16.399Z,98324.00
2023-10-26T00:18:46.014Z,98331.94
2023-10-26T00:21:14.445Z,98320.13
2023-10-26T00:23:42.561Z,98319.59
2023-10-26T00:26:10.740Z,98317.78
2023-10-26T00:28:38.844Z,98318.38
2023-10-26T00:31:06.909Z,98303.47
2023-10-26T00:33:35.145Z,98302.78
2023-10-26T00:36:05.086Z,98296.94
2023-10-26T00:38:33.312Z,98296.34
2023-10-26T00:41:01.523Z,98305.25
2023-10-26T00:43:29.633Z,98303.59
2023-10-26T00:45:57.931Z,98296.50
2023-10-26T00:48:26.264Z,98294.69
2023-10-26T00:50:54.762Z,98293.88
2023-10-26T00:53:24.370Z,98301.94
2023-10-26T00:55:54.094Z,98292.59
2023-10-26T00:58:23.610Z,98297.19
2023-10-26T01:00:52.188Z,98297.19
2023-10-26T01:03:21.060Z,98295.50
2023-10-26T01:05:49.745Z,98293.13
2023-10-26T01:08:17.992Z,98287.16
2023-10-26T01:10:48.813Z,98289.81
2023-10-26T01:13:17.044Z,98287.69
2023-10-26T01:15:45.186Z,98291.31
2023-10-26T01:18:13.664Z,98288.38
2023-10-26T01:20:43.927Z,98295.59
2023-10-26T01:23:13.554Z,98281.81
2023-10-26T01:25:41.853Z,98279.59
2023-10-26T01:28:10.062Z,98282.88
2023-10-26T01:30:38.203Z,98275.66
2023-10-26T01:33:06.458Z,98273.78
2023-10-26T01:35:39.971Z,98281.84
2023-10-26T01:38:08.177Z,98279.22
2023-10-26T01:40:37.693Z,98272.53
2023-10-26T01:43:05.868Z,98274.00
2023-10-26T01:45:34.155Z,98283.03
2023-10-26T01:48:04.302Z,98271.91
2023-10-26T01:50:33.933Z,98281.38
2023-10-26T01:53:02.093Z,98275.81
2023-10-26T01:55:30.259Z,98266.88
2023-10-26T01:58:00.295Z,98270.84
2023-10-26T02:00:28.481Z,98265.13
2023-10-26T02:02:57.498Z,98260.44
2023-10-26T02:05:26.673Z,98254.44
2023-10-26T02:07:55.061Z,98255.84
2023-10-26T02:10:25.168Z,98256.25
2023-10-26T02:12:53.365Z,98256.38
2023-10-26T02:15:23.006Z,98252.09
2023-10-26T02:17:51.528Z,98254.72
2023-10-26T02:20:19.977Z,98252.91
2023-10-26T02:22:49.201Z,98253.06
2023-10-26T02:25:17.730Z,98244.44
2023-10-26T02:27:45.958Z,98249.28
2023-10-26T02:30:15.314Z,98254.81
2023-10-26T02:32:45.176Z,98245.75
2023-10-26T02:35:13.463Z,98247.03
2023-10-26T02:37:41.892Z,98253.38
2023-10-26T02:40:11.280Z,98250.56
2023-10-26T02:42:40.551Z,98251.66
2023-10-26T02:45:10.286Z,98252.06
2023-10-26T02:47:40.244Z,98254.16
2023-10-26T02:50:11.150Z,98261.59
2023-10-26T02:52:39.586Z,98260.47
2023-10-26T02:55:08.934Z,98259.91
2023-10-26T02:57:37.288Z,98259.31
2023-10-26T03:00:07.463Z,98260.31
2023-10-26T03:02:35.752Z,98247.63
2023-10-26T03:05:04.186Z,98253.44
2023-10-26T03:07:34.655Z,98254.50
2023-10-26T03:10:03.138Z,98263.72
2023-10-26T03:12:31.432Z,98257.66
2023-10-26T03:14:59.722Z,98255.03
2023-10-26T03:17:27.990Z,98259.31
2023-10-26T03:19:56.310Z,98257.38
2023-10-26T03:22:24.491Z,98260.88
2023-10-26T03:24:54.367Z,98271.81
2023-10-26T03:27:22.634Z,98268.72
2023-10-26T03:29:50.773Z,98270.22
2023-10-26T03:32:18.969Z,98261.72
2023-10-26T03:34:47.128Z,98265.72
2023-10-26T03:37:15.271Z,98267.88
2023-10-26T03:39:43.595Z,98273.88
2023-10-26T03:42:13.191Z,98270.53
2023-10-26T03:44:41.509Z,98269.91
2023-10-26T03:47:10.004Z,98270.06
2023-10-26T03:49:39.167Z,98271.63
2023-10-26T03:52:07.976Z,98272.69
2023-10-26T03:54:37.303Z,98264.91
2023-10-26T03:57:06.524Z,98259.91
2023-10-26T03:59:36.067Z,98260.72
2023-10-26T04:02:04.447Z,98259.59
2023-10-26T04:04:32.791Z,98258.72
2023-10-26T04:07:01.165Z,98266.53
2023-10-26T04:09:31.887Z,98267.00
2023-10-26T04:12:00.024Z,98268.00
2023-10-26T04:14:28.207Z,98261.53
2023-10-26T04:16:57.818Z,98256.41
2023-10-26T04:19:25.981Z,98268.50
2023-10-26T04:21:54.167Z,98263.25
2023-10-26T04:24:22.377Z,98265.59
2023-10-26T04:26:50.661Z,98272.44
2023-10-26T04:29:18.864Z,98268.22
2023-10-26T04:31:47.123Z,98272.56
2023-10-26T04:34:16.731Z,98265.59
2023-10-26T04:36:45.000Z,98266.91
2023-10-26T04:39:14.873Z,98269.78
2023-10-26T04:41:43.004Z,98260.91
2023-10-26T04:44:11.199Z,98265.81
2023-10-26T04:46:39.361Z,98264.59
2023-10-26T04:49:07.507Z,98262.16
2023-10-26T04:51:37.154Z,98271.94
2023-10-26T04:54:05.351Z,98260.31
2023-10-26T04:56:38.911Z,98258.44
2023-10-26T04:59:07.221Z,98254.84
2023-10-26T05:01:35.452Z,98255.28
2023-10-26T05:04:03.577Z,98260.03
2023-10-26T05:06:32.280Z,98240.31
2023-10-26T05:09:03.519Z,98252.88
2023-10-26T05:11:31.871Z,98251.78
2023-10-26T05:14:00.177Z,98250.25
2023-10-26T05:16:28.488Z,98260.31
2023-10-26T05:18:56.929Z,98257.13
2023-10-26T05:21:25.520Z,98263.41
2023-10-26T05:23:53.700Z,98261.34
2023-10-26T05:26:23.308Z,98258.44
2023-10-26T05:28:51.632Z,98268.16
2023-10-26T05:31:19.755Z,98263.72
2023-10-26T05:33:48.487Z,98271.22
2023-10-26T05:36:17.256Z,98270.22
2023-10-26T11:34:22.145Z,98354.94
2023-10-26T11:36:51.815Z,98347.41
2023-10-26T11:39:20.255Z,98344.03
2023-10-26T11:41:55.399Z,98350.50
2023-10-26T11:44:27.764Z,98358.97
2023-10-26T11:46:59.538Z,98352.09
2023-10-26T11:49:39.478Z,98345.75
2023-10-26T11:52:09.226Z,98351.06
2023-10-26T11:54:37.482Z,98350.66
2023-10-26T11:57:05.943Z,98344.50
2023-10-26T11:59:34.066Z,98339.06
2023-10-26T12:02:02.289Z,98355.53
2023-10-26T12:04:30.540Z,98353.19
2023-10-26T12:07:00.807Z,98351.91
2023-10-26T12:09:30.321Z,98354.34
2023-10-26T12:11:58.539Z,98362.81
2023-10-26T12:14:26.795Z,98355.94
2023-10-26T12:16:54.982Z,98361.00
2023-10-26T12:19:23.498Z,98370.94
2023-10-26T12:21:55.236Z,98368.69
2023-10-26T12:24:24.646Z,98357.16
2023-10-26T12:27:02.000Z,98371.94
2023-10-26T12:29:30.477Z,98373.03
2023-10-26T12:31:59.488Z,98373.03
2023-10-26T12:34:27.692Z,98360.03
2023-10-26T12:36:55.922Z,98362.13
2023-10-26T12:39:24.188Z,98360.13
2023-10-26T12:41:52.376Z,98355.25
2023-10-26T12:44:22.812Z,98355.16
2023-10-26T12:46:51.607Z,98355.97
2023-10-26T12:49:20.133Z,98359.94
2023-10-26T12:51:48.444Z,98359.47
2023-10-26T12:54:16.784Z,98355.06
2023-10-26T12:56:45.080Z,98355.41
2023-10-26T12:59:13.433Z,98351.00
2023-10-26T13:01:42.967Z,98356.53
2023-10-26T13:04:11.196Z,98354.59
2023-10-26T13:06:39.914Z,98351.63
2023-10-26T13:09:08.374Z,98362.06
2023-10-26T13:11:36.611Z,98361.59
2023-10-26T13:14:07.087Z,98358.66
2023-10-26T13:16:49.387Z,98349.34
2023-10-26T13:19:24.943Z,98350.91
2023-10-26T13:21:53.313Z,98353.03
2023-10-26T13:24:21.563Z,98358.09
2023-10-26T13:26:49.786Z,98357.44
2023-10-26T13:29:17.982Z,98351.84
2023-10-26T13:31:46.211Z,98348.88
2023-10-26T13:34:14.590Z,98350.78
2023-10-26T13:36:44.257Z,98348.94
2023-10-26T13:39:12.433Z,98342.97
2023-10-26T13:41:40.599Z,98349.69
2023-10-26T13:44:08.789Z,98362.94
2023-10-26T13:46:37.041Z,98359.22
2023-10-26T13:49:05.306Z,98364.31
2023-10-26T13:51:33.564Z,98360.59
2023-10-26T13:54:04.198Z,98357.97
2023-10-26T13:56:32.382Z,98356.69
2023-10-26T13:59:00.748Z,98339.63
2023-10-26T14:01:29.200Z,98338.75
2023-10-26T14:03:57.727Z,98328.00
2023-10-26T14:06:26.653Z,98332.97
2023-10-26T14:08:59.285Z,98342.72
2023-10-26T14:11:31.101Z,98337.94
2023-10-26T14:13:59.249Z,98348.47
2023-10-26T14:16:30.411Z,98351.03
2023-10-26T14:19:00.677Z,98359.22
2023-10-26T14:21:29.285Z,98350.25
2023-10-26T14:23:57.547Z,98341.94
2023-10-26T14:26:25.724Z,98341.63
2023-10-26T14:28:55.302Z,98336.13
2023-10-26T14:31:23.579Z,98336.31
2023-10-26T14:33:53.273Z,98347.81
2023-10-26T14:36:22.475Z,98347.97
2023-10-26T14:38:51.844Z,98349.63
2023-10-26T14:41:20.480Z,98341.47
2023-10-26T14:43:51.051Z,98337.81
2023-10-26T14:46:20.602Z,98334.81
2023-10-26T14:48:48.852Z,98336.28
2023-10-26T14:51:17.040Z,98336.97
2023-10-26T14:53:45.165Z,98336.63
2023-10-26T14:56:13.849Z,98326.97
2023-10-26T14:58:41.924Z,98326.78
2023-10-26T15:01:13.356Z,98330.25
2023-10-26T15:03:43.537Z,98332.56
2023-10-26T15:06:12.088Z,98330.06
2023-10-26T15:08:40.353Z,98335.19
2023-10-26T15:11:22.961Z,98342.84
2023-10-26T15:13:52.660Z,98351.00
2023-10-26T15:16:21.013Z,98355.47
2023-10-26T15:18:50.701Z,98350.47
2023-10-26T15:21:18.995Z,98352.75
2023-10-26T15:23:47.112Z,98357.03
2023-10-26T15:26:15.269Z,98351.84
2023-10-26T15:28:43.487Z,98350.97
2023-10-26T15:31:12.916Z,98356.78
2023-10-26T15:33:41.253Z,98350.72
2023-10-26T15:36:11.216Z,98341.41
2023-10-26T15:38:42.424Z,98343.88
2023-10-26T15:41:11.856Z,98354.75
2023-10-26T15:43:40.070Z,98358.66
2023-10-26T15:46:08.452Z,98360.22
2023-10-26T15:49:33.334Z,98353.47
2023-10-26T15:51:27.289Z,98362.22
2023-10-26T15:53:55.700Z,98357.31
2023-10-26T15:56:23.883Z,98354.97
2023-10-26T15:58:53.990Z,98355.13
2023-10-26T16:01:22.737Z,98354.59
2023-10-26T16:03:50.961Z,98356.72
2023-10-26T16:06:20.169Z,98357.72
2023-10-26T16:08:50.605Z,98354.53
2023-10-26T16:11:18.810Z,98347.03
2023-10-26T16:13:48.058Z,98357.44
2023-10-26T16:16:16.595Z,98349.75
2023-10-26T16:18:47.969Z,98348.41
2023-10-26T16:21:16.840Z,98352.34
2023-10-26T16:23:45.528Z,98352.94
2023-10-26T16:26:15.987Z,98358.38
2023-10-26T16:28:45.068Z,98353.16
2023-10-26T16:31:14.575Z,98358.47
2023-10-26T16:33:42.964Z,98358.28
2023-10-26T16:36:11.761Z,98353.81
2023-10-26T16:38:41.212Z,98356.63
2023-10-26T16:41:09.602Z,98348.31
2023-10-26T16:43:40.764Z,98354.72
2023-10-26T16:46:13.341Z,98354.16
2023-10-26T16:48:44.210Z,98350.72
2023-10-26T16:51:12.475Z,98344.59
2023-10-26T16:53:41.744Z,98339.53
2023-10-26T16:56:11.801Z,98335.13
2023-10-26T16:58:43.003Z,98321.56
2023-10-26T17:01:12.687Z,98326.97
2023-10-26T17:03:41.891Z,98323.97
2023-10-26T17:06:12.092Z,98321.19
2023-10-26T17:08:43.457Z,98321.66
2023-10-26T17:11:13.286Z,98319.03
2023-10-26T17:13:45.563Z,98314.13
2023-10-26T17:16:15.178Z,98309.84
2023-10-26T17:18:44.618Z,98313.44
2023-10-26T17:21:13.665Z,98303.34
2023-10-26T17:23:43.579Z,98301.44
2023-10-26T17:26:16.348Z,98297.63
2023-10-26T17:28:51.300Z,98290.50
2023-10-26T17:31:20.242Z,98293.47
2023-10-26T17:33:52.875Z,98297.09
2023-10-26T17:36:21.493Z,98290.31
2023-10-26T17:38:51.537Z,98286.94
2023-10-26T17:41:21.056Z,98274.50
2023-10-26T17:43:51.281Z,98275.44
2023-10-26T17:46:22.265Z,98285.84
2023-10-26T17:48:53.437Z,98288.44
2023-10-26T17:51:22.687Z,98293.88
2023-10-26T17:53:56.084Z,98280.41
2023-10-26T17:56:28.474Z,98291.84
2023-10-26T17:59:00.117Z,98283.50
2023-10-26T18:01:30.139Z,98278.88
2023-10-26T18:04:00.868Z,98265.59
2023-10-26T18:06:35.424Z,98262.94
2023-10-26T18:09:05.018Z,98259.63
2023-10-26T18:11:35.191Z,98254.00
2023-10-26T18:14:08.568Z,98263.47
2023-10-26T18:16:55.397Z,98265.00
2023-10-26T18:19:27.308Z,98271.28
2023-10-26T18:21:56.884Z,98266.44
2023-10-26T18:24:27.925Z,98264.94
2023-10-26T18:26:59.133Z,98270.63
2023-10-26T18:29:30.168Z,98272.44
2023-10-26T18:32:02.870Z,98274.25
2023-10-26T18:34:35.851Z,98271.59
2023-10-26T18:37:05.240Z,98261.66
2023-10-26T18:39:34.414Z,98276.75
2023-10-26T18:42:05.443Z,98286.00
2023-10-26T18:44:37.000Z,98290.84
2023-10-26T18:47:06.714Z,98296.69
2023-10-26T18:49:40.006Z,98301.31
2023-10-26T18:52:10.038Z,98308.00
2023-10-26T18:54:39.723Z,98303.81
2023-10-26T18:57:11.697Z,98294.03
2023-10-26T18:59:46.677Z,98291.22
2023-10-26T19:02:18.606Z,98278.81
2023-10-26T19:04:48.722Z,98275.28
2023-10-26T19:07:23.966Z,98276.59
2023-10-26T19:09:53.743Z,98272.00
2023-10-26T19:12:23.785Z,98276.69
2023-10-26T19:14:56.992Z,98267.00
2023-10-26T19:17:28.264Z,98280.19
2023-10-26T19:19:58.134Z,98270.03
2023-10-26T19:22:29.466Z,98279.41
2023-10-26T19:24:59.850Z,98280.44
2023-10-26T19:27:29.601Z,98285.81
2023-10-26T19:30:01.741Z,98271.94
2023-10-26T19:32:33.660Z,98269.69
2023-10-26T19:35:08.084Z,98269.16
2023-10-26T19:37:39.852Z,98276.81
2023-10-26T19:40:11.912Z,98267.38
2023-10-26T19:42:43.607Z,98271.16
2023-10-26T19:45:17.262Z,98269.53
2023-10-26T19:47:48.346Z,98265.41
2023-10-26T19:50:23.865Z,98263.03
2023-10-26T19:52:54.226Z,98256.75
2023-10-26T19:55:25.589Z,98244.94
2023-10-26T19:57:58.072Z,98245.81
2023-10-26T20:00:30.559Z,98256.81
2023-10-26T20:03:02.326Z,98245.69
2023-10-26T20:05:33.243Z,98239.56
2023-10-26T20:08:03.963Z,98227.88
2023-10-26T20:10:35.709Z,98231.19
2023-10-26T20:13:08.206Z,98233.69
2023-10-26T20:15:40.585Z,98235.66
2023-10-26T20:18:13.231Z,98232.03
2023-10-26T20:20:42.874Z,98237.03
2023-10-26T20:23:13.258Z,98229.94
2023-10-26T20:25:42.953Z,98222.03
2023-10-26T20:28:15.833Z,98220.13
2023-10-26T20:30:48.483Z,98218.88
2023-10-26T20:33:19.207Z,98222.94
2023-10-26T20:35:53.140Z,98219.34
2023-10-26T20:38:22.660Z,98219.47
2023-10-26T20:40:52.417Z,98219.63
2023-10-26T20:43:21.265Z,98214.34
2023-10-26T20:45:56.979Z,98209.91
2023-10-26T20:48:26.469Z,98206.84
2023-10-26T20:50:57.951Z,98209.09
2023-10-26T20:53:30.630Z,98199.03
2023-10-26T20:56:02.711Z,98190.41
2023-10-26T20:58:33.095Z,98183.59
2023-10-26T21:01:03.293Z,98183.88
2023-10-26T21:03:34.338Z,98186.09
2023-10-26T21:06:06.120Z,98182.06
2023-10-26T21:08:34.473Z,98176.22
2023-10-26T21:11:03.036Z,98177.91
2023-10-26T21:13:35.004Z,98181.22
2023-10-26T21:16:04.991Z,98171.50
2023-10-26T21:18:33.295Z,98169.56
2023-10-26T21:21:06.981Z,98156.91
2023-10-26T21:23:36.543Z,98147.13
2023-10-26T21:26:06.418Z,98149.47
2023-10-26T21:28:35.374Z,98153.00
2023-10-26T21:31:08.721Z,98149.50
2023-10-26T21:33:37.092Z,98146.56
2023-10-26T21:36:08.717Z,98149.88
2023-10-26T21:38:36.912Z,98150.19
2023-10-26T21:41:06.534Z,98161.34
2023-10-26T21:43:35.348Z,98163.88
2023-10-26T21:46:08.946Z,98164.47
2023-10-26T21:48:37.300Z,98167.00
2023-10-26T21:51:12.351Z,98165.84
2023-10-26T21:53:40.706Z,98174.38
2023-10-26T21:56:09.081Z,98183.72
2023-10-26T21:58:37.820Z,98173.28
2023-10-26T22:01:10.146Z,98174.41
2023-10-26T22:03:39.106Z,98175.69
2023-10-26T22:06:07.516Z,98171.38
2023-10-26T22:08:35.728Z,98175.69
2023-10-26T22:11:03.842Z,98178.47
2023-10-26T22:13:32.268Z,98175.09
2023-10-26T22:16:00.664Z,98176.22
2023-10-26T22:18:30.341Z,98172.75
2023-10-26T22:21:02.880Z,98183.50
2023-10-26T22:23:31.037Z,98181.94
2023-10-26T22:25:59.957Z,98187.91
2023-10-26T22:28:28.184Z,98182.34
2023-10-26T22:30:56.399Z,98170.25
2023-10-26T22:33:25.907Z,98174.84
2023-10-26T22:35:55.384Z,98179.28
2023-10-26T22:38:23.585Z,98182.78
2023-10-26T22:40:51.677Z,98187.09
2023-10-26T22:43:19.920Z,98180.97
2023-10-26T22:45:48.079Z,98182.63
2023-10-26T22:48:16.312Z,98186.25
2023-10-26T22:50:44.459Z,98180.13
2023-10-26T22:53:13.985Z,98173.31
2023-10-26T22:55:42.200Z,98172.91
2023-10-26T22:58:10.373Z,98178.44
2023-10-26T23:00:38.618Z,98174.41
2023-10-26T23:03:06.757Z,98166.50
2023-10-26T23:05:35.420Z,98159.28
2023-10-26T23:08:04.771Z,98165.81
2023-10-26T23:10:34.290Z,98163.16
2023-10-26T23:13:02.541Z,98165.81
2023-10-26T23:15:30.782Z,98161.47
2023-10-26T23:17:58.994Z,98158.28
2023-10-26T23:20:27.216Z,98154.53
2023-10-26T23:22:55.413Z,98163.16
2023-10-26T23:25:24.658Z,98160.66
2023-10-26T23:27:54.250Z,98169.00
2023-10-26T23:30:22.631Z,98161.91
2023-10-26T23:32:52.033Z,98163.41
2023-10-26T23:35:20.329Z,98155.50
2023-10-26T23:37:48.427Z,98161.50
2023-10-26T23:40:16.862Z,98154.81
2023-10-26T23:42:45.050Z,98155.50
2023-10-26T23:45:14.709Z,98152.84
2023-10-26T23:47:42.897Z,98145.63
2023-10-26T23:50:11.716Z,98146.03
2023-10-26T23:52:39.887Z,98143.13
2023-10-26T23:55:08.995Z,98137.84
2023-10-26T23:57:37.345Z,98142.84
